Aviation Digital Data Service (ADDS)

Output produced by METARs form (0156 UTC 06 December 2020)
found at http://aviationweather.gov/metar/data/
 
LSZH 060150Z 32004KT 2500 -RA FEW003 SCT008 BKN016 02/01 Q0998 TEMPO 4000 RASN BKN004
LSZH 060120Z 36002KT 2500 -RA FEW003 SCT007 BKN016 02/01 Q0998 TEMPO 4000 RASN BKN004
TAF LSZH 052325Z 0600/0706 VRB03KT 6000 -RA SCT007 BKN035 TX03/0614Z TN00/0605Z
TN00/0705Z 
     TEMPO 0600/0609 4000 -RASN BKN007 
     PROB40 
     TEMPO 0600/0608 1000 SN BKN004 
     PROB40 
     TEMPO 0617/0623 4000 RA BKN012 
     PROB30 
     TEMPO 0617/0623 3000 RASN BKN007
       
LFSB 060130Z AUTO 24003KT 3500 -RA BR FEW005 SCT022 BKN031 03/03 Q0999 TEMPO 0500 FG VV///
LFSB 060100Z AUTO 29003KT 3500 -RA BR BKN004 OVC018 03/03 Q0998 TEMPO 0500 FG VV///
TAF LFSB 052300Z 0600/0624 35005KT 6000 FEW010 BKN020 
     TEMPO 0600/0621 4000 -RADZ BR OVC004 
     PROB30 
     TEMPO 0600/0608 0500 FG VV/// 
     PROB40 
     TEMPO 0608/0618 -RASN OVC008 
     PROB30 
     TEMPO 0608/0618 2000 -SN
       
LSZG 060150Z AUTO 21004KT 2700 -RASN OVC003 02/02 Q0998
LSZG 060120Z AUTO 21003KT 2200 -RA BKN/// 02/02 Q0998 RERASN
TAF AMD LSZG 051758Z 0517/0524 06004KT 7000 OVC013 
     TEMPO 0518/0524 4500 RASN
       
LSZB 060150Z AUTO VRB01KT 1200 R14/1000N -SN VV008 00/00 Q0998 REFZDZ
LSZB 060120Z AUTO VRB01KT 2400 -SN SCT010 BKN012 BKN014 00/00 Q0998
TAF AMD LSZB 051703Z 0517/0524 VRB03KT 6000 BKN005 
     PROB40 
     TEMPO 0518/0524 4000 -RASN BKN010 
     PROB30 
     TEMPO 0520/0524 2000 -SN
       
LSGG 060150Z AUTO 31002KT 9999 FEW014 SCT019 BKN027 02/01 Q0999 NOSIG
LSGG 060120Z AUTO VRB01KT 8000 SCT015 BKN025 02/02 Q0999 NOSIG
TAF LSGG 052325Z 0600/0706 VRB03KT 8000 BKN015 TX04/0615Z TNM01/0606Z TN00/0706Z

     BECMG 0607/0610 FEW020 
     BECMG 0701/0704 BKN010
       
LSZR 060150Z AUTO VRB01KT 4800 -RASN FEW060 BKN070 02/02 Q0997
LSZR 060120Z AUTO 09003KT 5000 SCT055 SCT070 02/02 Q0998 RERASN
TAF AMD LSZR 051708Z 0517/0524 VRB03KT 8000 -RA OVC010 
     TEMPO 0519/0524 4000 RASN 
     PROB30 
     TEMPO 0519/0524 1500 SN BKN005
       
LSGS 060150Z AUTO 00000KT 1300 -SN VV009 00/00 Q0998
LSGS 060120Z AUTO 00000KT 1500 -SN BKN/// 00/00 Q0999
TAF LSGS 051425Z 0515/0524 VRB03KT 9999 FEW020 BKN100
       
LSZA 060150Z AUTO VRB01KT 3000 RASN BKN016 OVC018 02/02 Q0999
LSZA 060120Z AUTO 35005KT 3200 -RASN SCT008 SCT010 BKN018 02/02 Q0998 RESN
TAF AMD LSZA 051705Z 0517/0524 VRB03KT 4000 RA FEW003 BKN015 
     TEMPO 0517/0524 1500 BKN010
       
EDNY 060150Z AUTO 35002KT 5000 // FEW005/// SCT014/// OVC091/// 01/01 Q0997
EDNY 060120Z AUTO 00000KT 5000 // OVC011/// 01/01 Q0998
TAF EDNY 052300Z 0600/0624 VRB03KT 5000 -RASN SCT007 BKN015 
     TEMPO 0600/0612 2000 -SNRA BKN005 
     BECMG 0613/0615 4000 -SN BKN008 
     TEMPO 0615/0624 1200 SN BKN003
       
EDDS 060150Z 25004KT 3000 BR BKN001 BKN029 02/02 Q0998
EDDS 060120Z VRB02KT 2100 -RA BR BKN002 BKN023 02/02 Q0998
TAF EDDS 052300Z 0600/0624 VRB03KT 4000 -RADZ BR BKN005 
     TEMPO 0600/0612 1000 BCFG BKN001 
     TEMPO 0612/0616 6000 SCT005 BKN010 
     TEMPO 0616/0624 1000 RASN BKN002
       
LOWI 060150Z AUTO 08008KT 8000 -RA BKN004 03/02 Q0999
LOWI 060120Z AUTO 10009KT 9000 -RA BKN003 03/02 Q0999
TAF AMD LOWI 060144Z 0601/0624 06006KT 6000 -RA SCT006 BKN035 TX04/0609Z
TN01/0601Z 
     TEMPO 0601/0609 1500 RASN BKN004 
     TEMPO 0613/0624 08008KT RA BKN010
       
EDDM 060150Z 30003KT 260V050 0500 R08L/1000N R08R/0650D FZFG BKN001 M01/M01 Q0997 NOSIG
EDDM 060120Z VRB02KT 0700 R08L/P2000N R08R/1000N FZFG BKN001 M01/M01 Q0997 NOSIG
TAF EDDM 052300Z 0600/0706 VRB03KT 2000 BCFG SCT004 
     TEMPO 0600/0605 0500 FZFG BKN001 
     BECMG 0604/0607 25005KT 3000 BR BKN005 
     BECMG 0608/0611 8000 BKN010 
     BECMG 0616/0620 4500 BR BKN005 
     PROB30 
     TEMPO 0620/0624 2000 -DZRA BKN003
       
LFMD 060130Z AUTO 34003KT 300V020 9999 FEW100 05/05 Q0998
LFMD 060100Z AUTO 00000KT CAVOK 05/05 Q0998
TAF LFMD 051400Z 0515/0615 34010KT 9999 BKN040 
     TEMPO 0515/0601 6000 RA 
     PROB30 
     TEMPO 0515/0523 27010KT 
     BECMG 0601/0603 34010KT CAVOK 
     BECMG 0613/0615 24010KT
       
LFLL 060130Z 16005KT 4500 BR SCT001 BKN190 00/00 Q0999 NOSIG
LFLL 060100Z 17003KT 5000 BR NSC 00/00 Q0999 NOSIG
TAF LFLL 052300Z 0600/0706 VRB02KT CAVOK 
     TEMPO 0600/0610 3000 BR 
     PROB30 0600/0609 0400 FZFG VV/// 
     BECMG 0612/0614 BKN040 
     TEMPO 0616/0702 -RA BKN020 
     PROB30 
     TEMPO 0619/0702 2000 SNRA BKN012 
     BECMG 0700/0702 18005KT
       
LIMC 060150Z 13003KT 0800 R35R/1400N R17L/1400U R35L/0900D FG OVC002 02/02 Q0999 NOSIG
LIMC 060120Z 25004KT 0800 R35R/1100D R17L/1100D R35L/P1500N FG OVC002 02/02 Q0998 NOSIG
TAF LIMC 052300Z 0600/0706 VRB05KT 2000 BR BKN010 
     TEMPO 0600/0608 0800 FG BKN002
       
LFPB 060130Z AUTO 10005KT 9999 BKN020 BKN041 OVC048 04/02 Q0997 TEMPO BKN014
LFPB 060100Z AUTO 09005KT 9999 BKN021 BKN026 OVC048 04/02 Q0996 NOSIG
TAF LFPB 052300Z 0600/0624 13010KT 9999 SCT025 BKN040 
     TEMPO 0603/0609 BKN014 
     TEMPO 0618/0624 BKN007
       
LIPZ 060150Z 17008KT 9999 -RA SCT070 13/12 Q1002 NOSIG
LIPZ 060120Z 17007KT 9000 -RA BKN040 13/12 Q1002 RERA NOSIG
TAF LIPZ 052300Z 0600/0706 13015KT 9999 SCT030 BKN050 
     TEMPO 0604/0609 4000 RA 
     TEMPO 0609/0616 3000 TSRA 
     BECMG 0618/0620 24008KT